sensor_id;sensor_type;location;lat;lon;timestamp;pressure;altitude;pressure_sealevel;temperature;humidity
9229;BME280;4649;42.644;23.284;2022-07-05T00:00:16;93209.41;;;21.41;59.90
9229;BME280;4649;42.644;23.284;2022-07-05T00:02:43;93266.31;;;22.00;58.24
9229;BME280;4649;42.644;23.284;2022-07-05T00:05:11;93238.53;;;21.66;58.25
9229;BME280;4649;42.644;23.284;2022-07-05T00:07:38;93271.88;;;21.85;58.46
9229;BME280;4649;42.644;23.284;2022-07-05T00:10:06;93264.31;;;21.93;58.63
9229;BME280;4649;42.644;23.284;2022-07-05T00:12:35;93261.72;;;21.95;59.64
9229;BME280;4649;42.644;23.284;2022-07-05T00:15:02;93259.88;;;21.97;59.97
9229;BME280;4649;42.644;23.284;2022-07-05T00:17:29;93249.91;;;22.02;59.32
9229;BME280;4649;42.644;23.284;2022-07-05T00:19:56;93254.22;;;21.88;60.10
9229;BME280;4649;42.644;23.284;2022-07-05T00:22:23;93252.16;;;21.96;59.87
9229;BME280;4649;42.644;23.284;2022-07-05T00:24:50;93254.06;;;21.86;59.83
9229;BME280;4649;42.644;23.284;2022-07-05T00:27:17;93159.19;;;21.25;59.36
9229;BME280;4649;42.644;23.284;2022-07-05T00:29:46;93146.34;;;21.20;59.11
9229;BME280;4649;42.644;23.284;2022-07-05T00:32:13;93253.47;;;21.95;59.45
9229;BME280;4649;42.644;23.284;2022-07-05T00:34:40;93252.94;;;21.89;60.35
9229;BME280;4649;42.644;23.284;2022-07-05T00:37:06;93255.09;;;21.98;59.38
9229;BME280;4649;42.644;23.284;2022-07-05T00:39:33;93252.97;;;22.13;57.82
9229;BME280;4649;42.644;23.284;2022-07-05T00:42:00;93183.09;;;21.62;57.75
9229;BME280;4649;42.644;23.284;2022-07-05T00:44:29;93237.56;;;22.10;57.45
9229;BME280;4649;42.644;23.284;2022-07-05T00:46:58;93251.22;;;22.32;55.12
9229;BME280;4649;42.644;23.284;2022-07-05T00:49:25;93249.94;;;22.33;55.60
9229;BME280;4649;42.644;23.284;2022-07-05T00:51:52;93208.00;;;22.03;54.83
9229;BME280;4649;42.644;23.284;2022-07-05T00:54:19;93207.63;;;22.06;55.17
9229;BME280;4649;42.644;23.284;2022-07-05T00:56:46;93243.63;;;22.40;54.14
9229;BME280;4649;42.644;23.284;2022-07-05T00:59:14;93224.41;;;22.25;54.75
9229;BME280;4649;42.644;23.284;2022-07-05T01:01:41;93240.19;;;22.25;54.94
9229;BME280;4649;42.644;23.284;2022-07-05T01:04:10;93238.75;;;22.31;54.83
9229;BME280;4649;42.644;23.284;2022-07-05T01:06:37;93204.69;;;22.04;54.39
9229;BME280;4649;42.644;23.284;2022-07-05T01:09:04;93233.97;;;22.24;54.30
9229;BME280;4649;42.644;23.284;2022-07-05T01:11:31;93248.75;;;22.44;53.00
9229;BME280;4649;42.644;23.284;2022-07-05T01:13:59;93207.53;;;22.21;51.85
9229;BME280;4649;42.644;23.284;2022-07-05T01:16:26;93257.53;;;22.50;52.75
9229;BME280;4649;42.644;23.284;2022-07-05T01:18:53;93230.00;;;22.10;54.61
9229;BME280;4649;42.644;23.284;2022-07-05T01:21:23;93234.44;;;22.13;54.32
9229;BME280;4649;42.644;23.284;2022-07-05T01:23:53;93257.78;;;22.12;54.99
9229;BME280;4649;42.644;23.284;2022-07-05T01:26:20;93248.53;;;22.17;53.73
9229;BME280;4649;42.644;23.284;2022-07-05T01:28:47;93271.47;;;22.27;53.79
9229;BME280;4649;42.644;23.284;2022-07-05T01:31:14;93268.91;;;22.29;54.00
9229;BME280;4649;42.644;23.284;2022-07-05T01:33:41;93268.19;;;22.21;54.31
9229;BME280;4649;42.644;23.284;2022-07-05T01:36:10;93255.00;;;22.12;54.26
9229;BME280;4649;42.644;23.284;2022-07-05T01:38:37;93268.19;;;22.21;53.92
9229;BME280;4649;42.644;23.284;2022-07-05T01:41:06;93254.78;;;21.86;54.75
9229;BME280;4649;42.644;23.284;2022-07-05T01:43:34;93266.50;;;21.94;54.86
9229;BME280;4649;42.644;23.284;2022-07-05T01:46:02;93100.88;;;20.73;53.70
9229;BME280;4649;42.644;23.284;2022-07-05T01:48:32;93258.34;;;21.72;53.48
9229;BME280;4649;42.644;23.284;2022-07-05T01:51:03;93210.78;;;21.25;53.95
9229;BME280;4649;42.644;23.284;2022-07-05T01:53:32;93251.03;;;21.59;54.25
9229;BME280;4649;42.644;23.284;2022-07-05T01:56:01;93247.50;;;21.66;54.26
9229;BME280;4649;42.644;23.284;2022-07-05T01:58:30;93252.59;;;21.85;54.03
9229;BME280;4649;42.644;23.284;2022-07-05T02:00:58;93213.50;;;21.32;54.60
9229;BME280;4649;42.644;23.284;2022-07-05T02:03:26;93251.09;;;21.37;54.96
9229;BME280;4649;42.644;23.284;2022-07-05T02:05:53;93221.31;;;20.96;57.26
9229;BME280;4649;42.644;23.284;2022-07-05T02:08:20;93163.78;;;20.39;58.43
9229;BME280;4649;42.644;23.284;2022-07-05T02:10:47;93249.00;;;20.83;59.99
9229;BME280;4649;42.644;23.284;2022-07-05T02:13:14;93107.53;;;19.80;60.05
9229;BME280;4649;42.644;23.284;2022-07-05T02:15:42;93252.31;;;20.89;58.04
9229;BME280;4649;42.644;23.284;2022-07-05T02:18:09;93219.13;;;20.58;59.04
9229;BME280;4649;42.644;23.284;2022-07-05T02:20:39;93256.16;;;20.57;60.36
9229;BME280;4649;42.644;23.284;2022-07-05T02:23:07;93248.47;;;20.48;60.75
9229;BME280;4649;42.644;23.284;2022-07-05T02:25:34;93256.19;;;20.49;61.21
9229;BME280;4649;42.644;23.284;2022-07-05T02:28:02;93207.56;;;20.07;62.80
9229;BME280;4649;42.644;23.284;2022-07-05T02:30:28;93260.38;;;20.65;62.65
9229;BME280;4649;42.644;23.284;2022-07-05T02:32:57;93247.00;;;20.47;62.48
9229;BME280;4649;42.644;23.284;2022-07-05T02:35:26;93269.00;;;20.47;61.89
9229;BME280;4649;42.644;23.284;2022-07-05T02:37:53;93273.22;;;20.48;62.66
9229;BME280;4649;42.644;23.284;2022-07-05T02:40:20;93272.66;;;20.57;63.23
9229;BME280;4649;42.644;23.284;2022-07-05T02:42:46;93270.47;;;20.55;62.93
9229;BME280;4649;42.644;23.284;2022-07-05T02:45:13;93248.84;;;20.37;62.89
9229;BME280;4649;42.644;23.284;2022-07-05T02:47:40;93267.88;;;20.35;62.29
9229;BME280;4649;42.644;23.284;2022-07-05T02:50:09;93282.94;;;20.49;61.66
9229;BME280;4649;42.644;23.284;2022-07-05T02:52:37;93273.22;;;20.48;62.23
9229;BME280;4649;42.644;23.284;2022-07-05T02:55:05;93238.56;;;20.30;61.52
9229;BME280;4649;42.644;23.284;2022-07-05T02:57:32;93257.28;;;20.54;61.46
9229;BME280;4649;42.644;23.284;2022-07-05T02:59:58;93280.00;;;20.62;62.37
9229;BME280;4649;42.644;23.284;2022-07-05T03:02:25;93250.44;;;20.03;63.98
9229;BME280;4649;42.644;23.284;2022-07-05T03:04:52;93276.66;;;20.11;65.56
9229;BME280;4649;42.644;23.284;2022-07-05T03:07:20;93289.13;;;20.19;66.21
9229;BME280;4649;42.644;23.284;2022-07-05T03:09:47;93274.66;;;20.34;65.51
9229;BME280;4649;42.644;23.284;2022-07-05T03:12:14;93279.63;;;20.35;65.61
9229;BME280;4649;42.644;23.284;2022-07-05T03:14:40;93274.50;;;20.39;66.69
9229;BME280;4649;42.644;23.284;2022-07-05T03:17:07;93279.28;;;20.54;65.24
9229;BME280;4649;42.644;23.284;2022-07-05T03:19:34;93273.22;;;20.70;63.83
9229;BME280;4649;42.644;23.284;2022-07-05T03:22:01;93279.63;;;20.50;65.61
9229;BME280;4649;42.644;23.284;2022-07-05T03:24:29;93278.53;;;20.46;66.45
9229;BME280;4649;42.644;23.284;2022-07-05T03:26:55;93278.16;;;20.57;66.66
9229;BME280;4649;42.644;23.284;2022-07-05T03:29:22;93255.06;;;20.60;66.53
9229;BME280;4649;42.644;23.284;2022-07-05T03:31:49;93270.84;;;20.89;65.61
9229;BME280;4649;42.644;23.284;2022-07-05T03:34:16;93271.97;;;20.79;66.95
9229;BME280;4649;42.644;23.284;2022-07-05T03:36:42;93274.16;;;20.73;67.93
9229;BME280;4649;42.644;23.284;2022-07-05T03:39:09;93227.78;;;20.47;68.69
9229;BME280;4649;42.644;23.284;2022-07-05T03:41:37;93162.69;;;20.19;66.11
9229;BME280;4649;42.644;23.284;2022-07-05T03:44:04;93265.69;;;21.08;65.52
9229;BME280;4649;42.644;23.284;2022-07-05T03:46:31;93270.44;;;21.22;64.10
9229;BME280;4649;42.644;23.284;2022-07-05T03:48:57;93242.03;;;20.97;64.64
9229;BME280;4649;42.644;23.284;2022-07-05T03:51:24;93266.44;;;21.01;63.78
9229;BME280;4649;42.644;23.284;2022-07-05T03:53:51;93182.84;;;20.22;63.54
9229;BME280;4649;42.644;23.284;2022-07-05T03:56:18;93264.63;;;20.74;62.70
9229;BME280;4649;42.644;23.284;2022-07-05T03:58:48;93234.16;;;20.57;62.46
9229;BME280;4649;42.644;23.284;2022-07-05T04:01:15;93262.41;;;21.02;62.42
9229;BME280;4649;42.644;23.284;2022-07-05T04:03:42;93254.25;;;21.26;62.24
9229;BME280;4649;42.644;23.284;2022-07-05T04:06:09;93208.78;;;21.10;60.18
9229;BME280;4649;42.644;23.284;2022-07-05T04:08:36;93226.25;;;21.59;57.02
9229;BME280;4649;42.644;23.284;2022-07-05T04:11:03;93257.50;;;21.94;57.00
9229;BME280;4649;42.644;23.284;2022-07-05T04:13:30;93196.78;;;21.77;55.22
9229;BME280;4649;42.644;23.284;2022-07-05T04:15:58;93226.66;;;22.19;53.84
9229;BME280;4649;42.644;23.284;2022-07-05T04:18:24;93267.91;;;22.66;53.50
9229;BME280;4649;42.644;23.284;2022-07-05T04:20:51;93220.16;;;22.56;53.15
9229;BME280;4649;42.644;23.284;2022-07-05T04:23:18;93252.16;;;23.00;53.82
9229;BME280;4649;42.644;23.284;2022-07-05T04:25:45;93256.88;;;23.07;54.19
9229;BME280;4649;42.644;23.284;2022-07-05T04:28:11;93261.63;;;23.14;53.75
9229;BME280;4649;42.644;23.284;2022-07-05T04:30:38;93259.56;;;23.15;53.30
9229;BME280;4649;42.644;23.284;2022-07-05T04:33:06;93260.88;;;23.14;52.85
9229;BME280;4649;42.644;23.284;2022-07-05T04:35:33;93258.09;;;23.14;52.99
9229;BME280;4649;42.644;23.284;2022-07-05T04:38:00;93262.09;;;23.20;53.64
9229;BME280;4649;42.644;23.284;2022-07-05T04:40:27;93259.44;;;23.30;53.83
9229;BME280;4649;42.644;23.284;2022-07-05T04:42:54;93263.16;;;23.41;51.30
9229;BME280;4649;42.644;23.284;2022-07-05T04:45:21;93249.16;;;23.39;51.06
9229;BME280;4649;42.644;23.284;2022-07-05T04:47:48;93259.16;;;23.52;52.45
9229;BME280;4649;42.644;23.284;2022-07-05T04:50:16;93259.97;;;23.62;52.61
9229;BME280;4649;42.644;23.284;2022-07-05T04:52:43;93258.38;;;23.59;53.42
9229;BME280;4649;42.644;23.284;2022-07-05T04:55:09;93264.63;;;23.76;53.37
9229;BME280;4649;42.644;23.284;2022-07-05T04:57:37;93243.41;;;23.79;52.13
9229;BME280;4649;42.644;23.284;2022-07-05T05:00:05;93255.66;;;23.85;54.15
9229;BME280;4649;42.644;23.284;2022-07-05T05:02:32;93262.22;;;24.06;53.15
9229;BME280;4649;42.644;23.284;2022-07-05T05:04:59;93260.81;;;24.15;51.91
9229;BME280;4649;42.644;23.284;2022-07-05T05:07:28;93264.91;;;24.23;51.42
9229;BME280;4649;42.644;23.284;2022-07-05T05:09:54;93222.91;;;23.82;51.31
9229;BME280;4649;42.644;23.284;2022-07-05T05:12:21;93275.25;;;24.23;52.26
9229;BME280;4649;42.644;23.284;2022-07-05T05:14:49;93185.09;;;23.67;51.90
9229;BME280;4649;42.644;23.284;2022-07-05T05:17:16;93275.75;;;24.55;49.95
9229;BME280;4649;42.644;23.284;2022-07-05T05:19:43;93264.84;;;24.57;49.70
9229;BME280;4649;42.644;23.284;2022-07-05T05:22:10;93276.19;;;24.87;48.47
9229;BME280;4649;42.644;23.284;2022-07-05T05:24:38;93280.47;;;25.07;47.52
9229;BME280;4649;42.644;23.284;2022-07-05T05:27:06;93274.38;;;25.18;47.06
9229;BME280;4649;42.644;23.284;2022-07-05T05:29:33;93255.56;;;25.17;46.36
9229;BME280;4649;42.644;23.284;2022-07-05T05:32:00;93270.94;;;25.46;48.51
9229;BME280;4649;42.644;23.284;2022-07-05T05:34:26;93276.63;;;25.57;47.09
9229;BME280;4649;42.644;23.284;2022-07-05T05:36:53;93274.03;;;25.78;47.35
9229;BME280;4649;42.644;23.284;2022-07-05T05:39:20;93271.97;;;25.88;46.81
9229;BME280;4649;42.644;23.284;2022-07-05T05:41:48;93262.63;;;26.02;45.38
9229;BME280;4649;42.644;23.284;2022-07-05T05:44:16;93200.03;;;25.71;47.04
9229;BME280;4649;42.644;23.284;2022-07-05T05:46:42;93264.81;;;26.13;44.79
9229;BME280;4649;42.644;23.284;2022-07-05T05:49:09;93275.28;;;26.24;46.63
9229;BME280;4649;42.644;23.284;2022-07-05T05:51:36;93274.84;;;26.37;44.18
9229;BME280;4649;42.644;23.284;2022-07-05T05:54:03;93274.31;;;26.69;45.71
9229;BME280;4649;42.644;23.284;2022-07-05T05:56:30;93280.19;;;27.03;43.17
9229;BME280;4649;42.644;23.284;2022-07-05T05:58:58;93260.59;;;26.92;42.45
9229;BME280;4649;42.644;23.284;2022-07-05T06:01:24;93278.88;;;27.25;44.75
9229;BME280;4649;42.644;23.284;2022-07-05T06:03:51;93279.63;;;27.25;43.12
9229;BME280;4649;42.644;23.284;2022-07-05T06:06:18;93237.19;;;27.04;42.79
9229;BME280;4649;42.644;23.284;2022-07-05T06:08:45;93275.25;;;27.22;45.74
9229;BME280;4649;42.644;23.284;2022-07-05T06:11:11;93269.84;;;27.45;42.61
9229;BME280;4649;42.644;23.284;2022-07-05T06:13:39;93284.69;;;27.59;42.30
9229;BME280;4649;42.644;23.284;2022-07-05T06:16:07;93286.25;;;28.04;43.31
9229;BME280;4649;42.644;23.284;2022-07-05T06:18:34;93271.47;;;28.22;42.10
9229;BME280;4649;42.644;23.284;2022-07-05T06:21:01;93294.97;;;28.31;42.15
9229;BME280;4649;42.644;23.284;2022-07-05T06:23:28;93290.22;;;28.54;42.33
9229;BME280;4649;42.644;23.284;2022-07-05T06:25:54;93272.38;;;28.36;39.03
9229;BME280;4649;42.644;23.284;2022-07-05T06:28:21;93295.38;;;28.92;41.22
9229;BME280;4649;42.644;23.284;2022-07-05T06:30:48;93299.50;;;29.25;38.58
9229;BME280;4649;42.644;23.284;2022-07-05T06:33:16;93268.34;;;28.94;36.98
9229;BME280;4649;42.644;23.284;2022-07-05T06:38:28;93293.69;;;28.11;39.65
9229;BME280;4649;42.644;23.284;2022-07-05T06:40:55;93291.53;;;28.21;41.41
9229;BME280;4649;42.644;23.284;2022-07-05T06:43:22;93293.25;;;28.26;40.62
9229;BME280;4649;42.644;23.284;2022-07-05T06:45:49;93162.72;;;27.44;40.23
9229;BME280;4649;42.644;23.284;2022-07-05T06:48:18;93278.94;;;28.52;40.19
9229;BME280;4649;42.644;23.284;2022-07-05T06:50:45;93276.94;;;28.98;39.76
9229;BME280;4649;42.644;23.284;2022-07-05T06:53:12;93281.78;;;28.75;38.74
9229;BME280;4649;42.644;23.284;2022-07-05T06:55:39;93278.13;;;28.72;39.07
9229;BME280;4649;42.644;23.284;2022-07-05T06:58:10;93279.84;;;28.77;40.55
9229;BME280;4649;42.644;23.284;2022-07-05T07:00:40;93277.16;;;28.79;40.93
9229;BME280;4649;42.644;23.284;2022-07-05T07:03:07;93273.06;;;29.03;39.37
9229;BME280;4649;42.644;23.284;2022-07-05T07:05:36;93189.09;;;28.86;40.17
9229;BME280;4649;42.644;23.284;2022-07-05T07:08:03;93262.91;;;29.89;39.12
9229;BME280;4649;42.644;23.284;2022-07-05T07:10:47;93266.28;;;30.24;38.24
9229;BME280;4649;42.644;23.284;2022-07-05T07:13:13;93271.97;;;30.01;38.65
9229;BME280;4649;42.644;23.284;2022-07-05T07:15:40;93282.94;;;29.74;37.84
9229;BME280;4649;42.644;23.284;2022-07-05T07:18:07;93279.81;;;29.68;37.43
9229;BME280;4649;42.644;23.284;2022-07-05T07:20:36;93282.81;;;29.95;38.87
9229;BME280;4649;42.644;23.284;2022-07-05T07:23:03;93282.03;;;30.06;38.49
9229;BME280;4649;42.644;23.284;2022-07-05T07:25:30;93289.78;;;30.44;38.04
9229;BME280;4649;42.644;23.284;2022-07-05T07:27:57;93285.06;;;30.60;38.71
9229;BME280;4649;42.644;23.284;2022-07-05T07:30:26;93290.75;;;30.86;37.07
9229;BME280;4649;42.644;23.284;2022-07-05T07:32:54;93286.13;;;30.66;35.57
9229;BME280;4649;42.644;23.284;2022-07-05T07:35:21;93272.91;;;30.42;35.87
9229;BME280;4649;42.644;23.284;2022-07-05T07:37:49;93262.78;;;30.23;36.11
9229;BME280;4649;42.644;23.284;2022-07-05T07:40:16;93280.06;;;30.45;36.25
9229;BME280;4649;42.644;23.284;2022-07-05T07:42:43;93280.81;;;30.34;37.81
9229;BME280;4649;42.644;23.284;2022-07-05T07:45:10;93273.53;;;30.79;37.28
9229;BME280;4649;42.644;23.284;2022-07-05T07:47:37;93286.88;;;31.05;36.97
9229;BME280;4649;42.644;23.284;2022-07-05T07:50:06;93269.41;;;31.18;36.95
9229;BME280;4649;42.644;23.284;2022-07-05T07:52:32;93233.63;;;31.03;34.64
9229;BME280;4649;42.644;23.284;2022-07-05T07:55:01;93262.16;;;31.40;34.93
9229;BME280;4649;42.644;23.284;2022-07-05T07:57:29;93280.13;;;31.48;34.71
9229;BME280;4649;42.644;23.284;2022-07-05T07:59:56;93276.56;;;31.48;34.57
9229;BME280;4649;42.644;23.284;2022-07-05T08:02:23;93283.94;;;31.54;34.20
9229;BME280;4649;42.644;23.284;2022-07-05T08:04:51;93204.75;;;31.12;34.63
9229;BME280;4649;42.644;23.284;2022-07-05T08:07:18;93281.31;;;31.72;34.64
9229;BME280;4649;42.644;23.284;2022-07-05T08:09:45;93285.16;;;31.78;34.02
9229;BME280;4649;42.644;23.284;2022-07-05T08:12:13;93287.44;;;31.82;37.28
9229;BME280;4649;42.644;23.284;2022-07-05T08:14:40;93288.69;;;31.79;34.28
9229;BME280;4649;42.644;23.284;2022-07-05T08:17:08;93209.19;;;31.57;35.62
9229;BME280;4649;42.644;23.284;2022-07-05T08:19:35;93277.75;;;32.11;34.11
9229;BME280;4649;42.644;23.284;2022-07-05T08:22:20;93163.81;;;31.32;34.12
9229;BME280;4649;42.644;23.284;2022-07-05T08:24:47;93278.91;;;31.93;34.87
9229;BME280;4649;42.644;23.284;2022-07-05T08:27:16;93261.09;;;32.00;33.48
9229;BME280;4649;42.644;23.284;2022-07-05T08:29:43;93277.53;;;32.21;33.09
9229;BME280;4649;42.644;23.284;2022-07-05T08:32:10;93278.19;;;32.35;32.83
9229;BME280;4649;42.644;23.284;2022-07-05T08:34:37;93262.28;;;32.53;33.06
9229;BME280;4649;42.644;23.284;2022-07-05T08:37:04;93249.34;;;32.61;32.21
9229;BME280;4649;42.644;23.284;2022-07-05T08:39:31;93249.75;;;32.84;34.64
9229;BME280;4649;42.644;23.284;2022-07-05T08:41:59;93234.91;;;32.67;32.03
9229;BME280;4649;42.644;23.284;2022-07-05T08:44:28;93260.63;;;32.92;32.21
9229;BME280;4649;42.644;23.284;2022-07-05T08:46:57;93261.88;;;32.89;33.08
9229;BME280;4649;42.644;23.284;2022-07-05T08:49:26;93157.94;;;31.68;33.42
9229;BME280;4649;42.644;23.284;2022-07-05T08:51:53;93263.56;;;32.65;33.28
9229;BME280;4649;42.644;23.284;2022-07-05T08:54:22;93244.81;;;32.54;33.89
9229;BME280;4649;42.644;23.284;2022-07-05T08:56:50;93230.13;;;32.40;33.12
9229;BME280;4649;42.644;23.284;2022-07-05T08:59:17;93253.88;;;32.68;32.50
9229;BME280;4649;42.644;23.284;2022-07-05T09:01:46;93169.06;;;32.23;32.27
9229;BME280;4649;42.644;23.284;2022-07-05T09:04:16;93217.69;;;32.59;33.18
9229;BME280;4649;42.644;23.284;2022-07-05T09:06:46;93251.00;;;32.97;32.74
9229;BME280;4649;42.644;23.284;2022-07-05T09:09:17;93250.25;;;33.10;32.52
9229;BME280;4649;42.644;23.284;2022-07-05T09:11:44;93228.78;;;33.01;32.67
9229;BME280;4649;42.644;23.284;2022-07-05T09:14:18;93240.72;;;33.01;32.34
9229;BME280;4649;42.644;23.284;2022-07-05T09:16:47;93234.91;;;32.97;32.39
9229;BME280;4649;42.644;23.284;2022-07-05T09:19:14;93228.38;;;32.93;32.44
9229;BME280;4649;42.644;23.284;2022-07-05T09:21:41;93228.16;;;33.02;32.91
9229;BME280;4649;42.644;23.284;2022-07-05T09:24:09;93223.59;;;32.95;34.47
9229;BME280;4649;42.644;23.284;2022-07-05T09:26:37;93212.94;;;32.92;32.10
9229;BME280;4649;42.644;23.284;2022-07-05T09:29:06;93216.09;;;33.15;32.54
9229;BME280;4649;42.644;23.284;2022-07-05T09:31:34;93222.25;;;33.27;32.22
9229;BME280;4649;42.644;23.284;2022-07-05T09:34:07;93207.97;;;33.06;31.92
9229;BME280;4649;42.644;23.284;2022-07-05T09:36:48;93218.47;;;33.05;31.68
9229;BME280;4649;42.644;23.284;2022-07-05T09:39:15;93224.34;;;33.11;31.68
9229;BME280;4649;42.644;23.284;2022-07-05T09:41:42;93201.72;;;33.23;31.02
9229;BME280;4649;42.644;23.284;2022-07-05T09:44:09;93182.53;;;33.02;31.71
9229;BME280;4649;42.644;23.284;2022-07-05T09:46:36;93210.28;;;33.42;31.64
9229;BME280;4649;42.644;23.284;2022-07-05T09:49:05;93208.16;;;33.58;30.72
9229;BME280;4649;42.644;23.284;2022-07-05T09:51:47;93185.81;;;33.44;30.68
9229;BME280;4649;42.644;23.284;2022-07-05T09:54:14;93200.09;;;33.66;29.86
9229;BME280;4649;42.644;23.284;2022-07-05T09:56:46;93197.63;;;33.26;30.58
9229;BME280;4649;42.644;23.284;2022-07-05T09:59:14;93194.69;;;33.54;29.92
9229;BME280;4649;42.644;23.284;2022-07-05T10:01:42;93200.31;;;33.39;30.16
9229;BME280;4649;42.644;23.284;2022-07-05T10:04:10;93186.69;;;31.97;30.47
9229;BME280;4649;42.644;23.284;2022-07-05T10:06:37;93169.75;;;32.09;32.04
9229;BME280;4649;42.644;23.284;2022-07-05T10:09:04;93159.03;;;32.63;31.30
9229;BME280;4649;42.644;23.284;2022-07-05T10:11:31;93193.31;;;32.92;31.05
9229;BME280;4649;42.644;23.284;2022-07-05T10:13:59;93159.84;;;32.65;31.57
9229;BME280;4649;42.644;23.284;2022-07-05T10:16:29;93185.31;;;32.71;31.80
9229;BME280;4649;42.644;23.284;2022-07-05T10:18:56;93178.66;;;33.09;31.33
9229;BME280;4649;42.644;23.284;2022-07-05T10:21:25;93167.59;;;33.13;31.72
9229;BME280;4649;42.644;23.284;2022-07-05T10:23:52;93067.28;;;32.50;32.19
9229;BME280;4649;42.644;23.284;2022-07-05T10:26:21;93123.09;;;32.90;32.03
9229;BME280;4649;42.644;23.284;2022-07-05T10:28:50;93173.38;;;33.17;32.73
9229;BME280;4649;42.644;23.284;2022-07-05T10:31:18;93161.00;;;32.60;32.77
9229;BME280;4649;42.644;23.284;2022-07-05T10:33:45;93162.72;;;32.67;33.08
9229;BME280;4649;42.644;23.284;2022-07-05T10:36:13;93129.88;;;32.54;33.16
9229;BME280;4649;42.644;23.284;2022-07-05T10:38:43;93061.59;;;32.02;34.47
9229;BME280;4649;42.644;23.284;2022-07-05T10:41:14;93161.91;;;31.92;34.07
9229;BME280;4649;42.644;23.284;2022-07-05T10:43:43;93154.91;;;32.35;35.47
9229;BME280;4649;42.644;23.284;2022-07-05T10:46:10;93160.72;;;32.54;33.91
9229;BME280;4649;42.644;23.284;2022-07-05T10:48:37;93151.03;;;32.57;34.42
9229;BME280;4649;42.644;23.284;2022-07-05T10:51:14;93131.84;;;32.36;34.63
9229;BME280;4649;42.644;23.284;2022-07-05T10:54:01;93144.78;;;32.43;35.45
9229;BME280;4649;42.644;23.284;2022-07-05T10:56:29;93153.88;;;31.02;35.68
9229;BME280;4649;42.644;23.284;2022-07-05T10:59:04;93120.31;;;30.88;36.28
9229;BME280;4649;42.644;23.284;2022-07-05T11:01:36;93152.69;;;31.47;34.33
9229;BME280;4649;42.644;23.284;2022-07-05T11:04:24;93145.78;;;31.48;35.13
9229;BME280;4649;42.644;23.284;2022-07-05T11:06:52;93141.34;;;31.72;35.64
9229;BME280;4649;42.644;23.284;2022-07-05T11:09:21;93116.31;;;31.05;34.23
9229;BME280;4649;42.644;23.284;2022-07-05T11:12:05;93141.94;;;31.28;35.73
9229;BME280;4649;42.644;23.284;2022-07-05T11:14:34;93096.22;;;31.37;35.93
9229;BME280;4649;42.644;23.284;2022-07-05T11:17:14;93133.47;;;31.97;35.79
9229;BME280;4649;42.644;23.284;2022-07-05T11:20:16;93123.72;;;31.27;34.93
9229;BME280;4649;42.644;23.284;2022-07-05T11:23:06;93134.88;;;31.54;33.58
9229;BME280;4649;42.644;23.284;2022-07-05T11:25:36;93085.47;;;30.11;34.79
9229;BME280;4649;42.644;23.284;2022-07-05T11:28:11;93139.97;;;30.25;37.09
9229;BME280;4649;42.644;23.284;2022-07-05T11:30:46;93121.97;;;30.15;35.50
9229;BME280;4649;42.644;23.284;2022-07-05T11:33:37;93145.41;;;30.35;35.01
9229;BME280;4649;42.644;23.284;2022-07-05T11:36:06;93137.19;;;30.50;35.08
9229;BME280;4649;42.644;23.284;2022-07-05T11:38:34;93134.09;;;30.58;34.88
9229;BME280;4649;42.644;23.284;2022-07-05T11:41:15;93098.38;;;30.70;35.32
9229;BME280;4649;42.644;23.284;2022-07-05T11:43:41;93050.34;;;30.60;34.28
9229;BME280;4649;42.644;23.284;2022-07-05T11:46:09;93130.09;;;31.01;34.15
9229;BME280;4649;42.644;23.284;2022-07-05T11:48:36;93045.44;;;30.07;33.87
9229;BME280;4649;42.644;23.284;2022-07-05T11:51:13;93114.84;;;31.04;34.55
9229;BME280;4649;42.644;23.284;2022-07-05T11:53:41;93107.31;;;31.35;34.25
9229;BME280;4649;42.644;23.284;2022-07-05T11:56:09;93086.84;;;31.17;33.48
9229;BME280;4649;42.644;23.284;2022-07-05T11:58:37;93105.88;;;31.48;33.24
9229;BME280;4649;42.644;23.284;2022-07-05T12:01:04;93101.19;;;31.52;33.00
9229;BME280;4649;42.644;23.284;2022-07-05T12:03:32;93098.88;;;31.62;33.41
9229;BME280;4649;42.644;23.284;2022-07-05T12:06:09;93090.91;;;31.56;32.95
9229;BME280;4649;42.644;23.284;2022-07-05T12:08:36;93090.91;;;31.56;33.23
9229;BME280;4649;42.644;23.284;2022-07-05T12:11:03;93084.78;;;31.60;32.56
9229;BME280;4649;42.644;23.284;2022-07-05T12:13:50;93054.25;;;31.37;32.21
9229;BME280;4649;42.644;23.284;2022-07-05T12:16:17;93086.31;;;31.63;33.30
9229;BME280;4649;42.644;23.284;2022-07-05T12:18:52;93015.06;;;31.08;33.22
9229;BME280;4649;42.644;23.284;2022-07-05T12:21:20;93064.75;;;30.94;33.68
9229;BME280;4649;42.644;23.284;2022-07-05T12:23:47;93029.88;;;31.11;34.73
9229;BME280;4649;42.644;23.284;2022-07-05T12:26:15;93084.69;;;31.16;33.48
9229;BME280;4649;42.644;23.284;2022-07-05T12:28:43;93051.91;;;31.32;33.94
9229;BME280;4649;42.644;23.284;2022-07-05T12:31:16;93090.13;;;31.27;33.79
9229;BME280;4649;42.644;23.284;2022-07-05T12:33:43;93077.75;;;30.77;33.45
9229;BME280;4649;42.644;23.284;2022-07-05T12:36:11;92980.59;;;30.08;33.76
9229;BME280;4649;42.644;23.284;2022-07-05T12:38:39;93080.78;;;30.02;34.91
9229;BME280;4649;42.644;23.284;2022-07-05T12:41:06;93066.56;;;30.36;35.40
9229;BME280;4649;42.644;23.284;2022-07-05T12:43:32;93075.19;;;30.67;34.22
9229;BME280;4649;42.644;23.284;2022-07-05T12:46:00;93069.59;;;30.81;34.50
9229;BME280;4649;42.644;23.284;2022-07-05T12:48:33;93063.06;;;30.49;34.10
9229;BME280;4649;42.644;23.284;2022-07-05T12:51:00;93075.91;;;30.68;34.67
9229;BME280;4649;42.644;23.284;2022-07-05T12:53:27;93018.88;;;30.46;34.33
9229;BME280;4649;42.644;23.284;2022-07-05T12:56:12;93046.09;;;30.99;34.05
9229;BME280;4649;42.644;23.284;2022-07-05T12:58:59;93052.72;;;31.34;34.54
9229;BME280;4649;42.644;23.284;2022-07-05T13:01:27;93045.53;;;31.45;33.93
9229;BME280;4649;42.644;23.284;2022-07-05T13:04:01;92978.44;;;31.02;34.51
9229;BME280;4649;42.644;23.284;2022-07-05T13:06:48;93012.25;;;31.22;33.94
9229;BME280;4649;42.644;23.284;2022-07-05T13:09:30;92988.69;;;31.11;34.07
9229;BME280;4649;42.644;23.284;2022-07-05T13:12:05;93040.53;;;31.56;34.27
9229;BME280;4649;42.644;23.284;2022-07-05T13:14:32;93033.50;;;31.13;34.11
9229;BME280;4649;42.644;23.284;2022-07-05T13:16:59;93040.88;;;31.07;33.98
9229;BME280;4649;42.644;23.284;2022-07-05T13:19:27;93034.47;;;30.78;34.85